Time;durP1;ratioP1;P1;durP2;ratioP2;P2;SDS_P1;SDS_P2;PMS_P1;PMS_P2;Temp;Humidity;BMP_temperature;BMP_pressure;BME280_temperature;BME280_humidity;BME280_pressure;Samples;Min_cycle;Max_cycle;Signal;HPM_P1;HPM_P2
2023/02/17 00:01:22;;;;;;;19.88;10.98;;;8.70;99.90;;;;;;5095916;28;20075;-79
2023/02/17 00:03:51;;;;;;;20.38;10.70;;;8.70;99.90;;;;;;5095903;28;20131;-79
2023/02/17 00:06:23;;;;;;;23.92;11.88;;;8.70;99.90;;;;;;5095890;28;20134;-80
2023/02/17 00:08:50;;;;;;;23.83;11.65;;;8.70;99.90;;;;;;5096192;28;20036;-79
2023/02/17 00:11:18;;;;;;;19.63;10.75;;;8.70;99.90;;;;;;5075810;28;20041;-80
2023/02/17 00:13:45;;;;;;;20.98;10.85;;;8.70;99.90;;;;;;5075872;28;20047;-80
2023/02/17 00:16:18;;;;;;;19.63;10.43;;;8.70;99.90;;;;;;5059342;28;20044;-79
2023/02/17 00:18:46;;;;;;;19.88;10.20;;;8.70;99.90;;;;;;5091858;28;20063;-79
2023/02/17 00:21:20;;;;;;;19.30;10.27;;;8.80;99.90;;;;;;5079919;28;20072;-80
2023/02/17 00:23:48;;;;;;;20.70;10.68;;;8.70;99.90;;;;;;5075393;28;20048;-79
2023/02/17 00:26:16;;;;;;;19.80;10.02;;;8.70;99.90;;;;;;5042846;28;20385;-79
2023/02/17 00:28:43;;;;;;;18.25;9.60;;;8.80;99.90;;;;;;5075348;28;20041;-79
2023/02/17 00:31:14;;;;;;;20.27;10.35;;;8.80;99.90;;;;;;5067867;28;20035;-79
2023/02/17 00:33:41;;;;;;;18.42;10.18;;;8.80;99.90;;;;;;5095187;28;20048;-80
2023/02/17 00:36:12;;;;;;;21.05;10.82;;;8.80;99.90;;;;;;5095478;28;20036;-80
2023/02/17 00:38:39;;;;;;;22.02;9.90;;;8.80;99.90;;;;;;5094865;28;20082;-80
2023/02/17 00:41:05;;;;;;;23.80;10.70;;;8.70;99.90;;;;;;5075380;28;20048;-80
2023/02/17 00:43:32;;;;;;;23.13;11.55;;;8.70;99.90;;;;;;5058570;28;20048;-80
2023/02/17 00:45:59;;;;;;;21.30;10.68;;;8.70;99.90;;;;;;5075418;28;20052;-80
2023/02/17 00:48:25;;;;;;;26.17;11.63;;;8.70;99.90;;;;;;5075021;28;20037;-80
2023/02/17 00:50:52;;;;;;;25.65;12.02;;;8.80;99.90;;;;;;5074602;28;20036;-80
2023/02/17 00:53:19;;;;;;;27.70;12.52;;;8.80;99.90;;;;;;5094951;28;20403;-80
2023/02/17 00:55:46;;;;;;;26.65;12.52;;;8.80;99.90;;;;;;5078218;28;20072;-80
2023/02/17 00:58:12;;;;;;;24.65;11.85;;;8.80;99.90;;;;;;5078231;28;20040;-80
2023/02/17 01:00:39;;;;;;;28.30;12.45;;;8.70;99.90;;;;;;5094890;28;20043;-80
2023/02/17 01:03:06;;;;;;;29.60;13.35;;;8.80;99.90;;;;;;5078283;28;20122;-80
2023/02/17 01:05:33;;;;;;;31.50;13.02;;;8.80;99.90;;;;;;5094647;28;20047;-81
2023/02/17 01:08:00;;;;;;;29.85;13.20;;;8.80;99.90;;;;;;5111238;28;20078;-80
2023/02/17 01:10:27;;;;;;;32.72;14.05;;;8.80;99.90;;;;;;5094691;28;20044;-80
2023/02/17 01:12:53;;;;;;;30.75;13.55;;;8.80;99.90;;;;;;5074079;28;20090;-80
2023/02/17 01:15:20;;;;;;;33.25;15.07;;;8.80;99.90;;;;;;5057961;28;20047;-80
2023/02/17 01:17:47;;;;;;;31.33;14.27;;;8.80;99.90;;;;;;5057666;28;20032;-81
2023/02/17 01:20:13;;;;;;;32.75;14.75;;;8.80;99.90;;;;;;5057757;28;20044;-80
2023/02/17 01:22:40;;;;;;;32.88;14.73;;;8.80;99.90;;;;;;5077253;28;20055;-81
2023/02/17 01:25:07;;;;;;;37.72;15.88;;;8.90;99.90;;;;;;5074348;28;20075;-80
2023/02/17 01:27:34;;;;;;;30.90;14.75;;;8.80;99.90;;;;;;5073889;28;20439;-81
2023/02/17 01:30:01;;;;;;;34.88;15.38;;;8.90;99.90;;;;;;5057648;28;20135;-80
2023/02/17 01:32:28;;;;;;;33.03;15.75;;;8.90;99.90;;;;;;5093349;28;20068;-80
2023/02/17 01:34:54;;;;;;;34.67;15.82;;;8.90;99.90;;;;;;5077295;28;20119;-80
2023/02/17 01:37:21;;;;;;;36.05;16.23;;;8.90;99.90;;;;;;5077658;28;20567;-80
2023/02/17 01:39:48;;;;;;;37.45;16.88;;;8.90;99.90;;;;;;5093665;28;20504;-80
2023/02/17 01:42:19;;;;;;;33.25;17.08;;;8.90;99.90;;;;;;5094215;28;20047;-80
2023/02/17 01:45:28;;;;;;;36.70;16.92;;;8.90;99.90;;;;;;5076771;28;20044;-80
2023/02/17 01:48:13;;;;;;;41.85;18.77;;;8.90;99.90;;;;;;5073906;28;20083;-80
2023/02/17 01:50:59;;;;;;;39.95;18.45;;;9.00;99.90;;;;;;5090340;28;20040;-81
2023/02/17 01:53:38;;;;;;;40.72;19.00;;;8.90;99.90;;;;;;5074108;28;20044;-80
2023/02/17 01:56:06;;;;;;;39.50;19.13;;;9.00;99.90;;;;;;5057471;28;20058;-80
2023/02/17 01:58:33;;;;;;;42.13;19.65;;;8.90;99.90;;;;;;5040785;28;20044;-80
2023/02/17 02:01:03;;;;;;;42.75;20.52;;;8.90;99.90;;;;;;5073408;28;20040;-80
2023/02/17 02:03:33;;;;;;;45.85;20.55;;;9.00;99.90;;;;;;5074518;28;20036;-80
2023/02/17 02:06:05;;;;;;;44.90;21.63;;;9.00;99.90;;;;;;5109723;28;20060;-80
2023/02/17 02:08:41;;;;;;;45.70;20.50;;;9.00;99.90;;;;;;5093606;28;20433;-80
2023/02/17 02:11:08;;;;;;;44.70;21.77;;;9.00;99.90;;;;;;5093735;28;20048;-80
2023/02/17 02:13:35;;;;;;;48.55;22.17;;;9.00;99.90;;;;;;5076998;28;20385;-80
2023/02/17 02:16:21;;;;;;;45.97;22.85;;;9.00;99.90;;;;;;5058245;28;20764;-80
2023/02/17 02:19:07;;;;;;;44.72;21.98;;;9.00;99.90;;;;;;5073329;28;20174;-80
2023/02/17 02:21:52;;;;;;;46.67;22.35;;;9.00;99.90;;;;;;5073070;28;20131;-80
2023/02/17 02:24:25;;;;;;;47.75;22.45;;;9.00;99.90;;;;;;5089512;28;20066;-79
2023/02/17 02:27:06;;;;;;;45.75;22.45;;;9.00;99.90;;;;;;5077636;28;20040;-80
2023/02/17 02:29:48;;;;;;;46.05;24.00;;;9.00;99.90;;;;;;5109847;28;20557;-80
2023/02/17 02:32:46;;;;;;;43.95;22.35;;;9.00;99.90;;;;;;5093069;28;20078;-80
2023/02/17 02:35:28;;;;;;;41.97;22.65;;;9.00;99.90;;;;;;5092812;28;20044;-80
2023/02/17 02:37:59;;;;;;;53.67;23.88;;;9.10;99.90;;;;;;5109632;28;20127;-80
2023/02/17 02:40:31;;;;;;;46.17;24.52;;;9.00;99.90;;;;;;5109698;28;20046;-80
2023/02/17 02:43:01;;;;;;;51.22;24.50;;;9.00;99.90;;;;;;5092778;28;20193;-80
2023/02/17 02:45:27;;;;;;;52.92;25.80;;;9.10;99.90;;;;;;5076651;28;20040;-80
2023/02/17 02:47:56;;;;;;;42.72;22.83;;;9.10;99.90;;;;;;5092494;28;20050;-80
2023/02/17 02:50:23;;;;;;;43.22;22.52;;;9.00;99.90;;;;;;5092741;28;20044;-80
2023/02/17 02:53:35;;;;;;;49.30;24.67;;;9.10;99.90;;;;;;5092699;28;20032;-80
2023/02/17 02:56:06;;;;;;;51.10;23.52;;;9.10;99.90;;;;;;5092743;28;20044;-80
2023/02/17 02:58:46;;;;;;;46.83;23.52;;;9.10;99.90;;;;;;5109702;28;20040;-80
2023/02/17 03:01:19;;;;;;;51.95;23.77;;;9.10;99.90;;;;;;5092816;28;20043;-80
2023/02/17 03:04:35;;;;;;;54.03;24.23;;;9.10;99.90;;;;;;5092320;28;20036;-81
2023/02/17 03:07:08;;;;;;;50.33;23.13;;;9.10;99.90;;;;;;4983288;28;20101;-80
2023/02/17 03:09:35;;;;;;;46.15;24.15;;;9.10;99.90;;;;;;5079179;28;20124;-80
2023/02/17 03:12:02;;;;;;;44.08;22.98;;;9.10;99.90;;;;;;5068520;28;20092;-80
2023/02/17 03:14:36;;;;;;;43.67;22.77;;;9.10;99.90;;;;;;5069117;28;20083;-80
2023/02/17 03:17:03;;;;;;;48.33;23.63;;;9.10;99.90;;;;;;5068728;28;20033;-80
2023/02/17 03:19:30;;;;;;;51.85;24.15;;;9.10;99.90;;;;;;5052739;28;20482;-80
2023/02/17 03:22:24;;;;;;;44.80;22.27;;;9.10;99.90;;;;;;5068247;28;20040;-80
2023/02/17 03:24:51;;;;;;;45.92;22.48;;;9.10;99.90;;;;;;5073239;28;20147;-80
2023/02/17 03:27:18;;;;;;;49.65;23.38;;;9.10;99.90;;;;;;5070649;28;20071;-80
2023/02/17 03:29:44;;;;;;;43.80;22.30;;;9.10;99.90;;;;;;5036200;28;20041;-80
2023/02/17 03:32:11;;;;;;;39.75;22.05;;;9.20;99.90;;;;;;5068907;28;20422;-80
2023/02/17 03:34:38;;;;;;;44.17;23.45;;;9.10;99.90;;;;;;5036246;28;20134;-80
2023/02/17 03:37:05;;;;;;;45.78;21.88;;;9.10;99.90;;;;;;5052159;28;20398;-80
2023/02/17 03:39:31;;;;;;;43.78;21.65;;;9.20;99.90;;;;;;5088825;28;20040;-80
2023/02/17 03:41:58;;;;;;;42.35;23.23;;;9.20;99.90;;;;;;5072053;28;20534;-80
2023/02/17 03:44:25;;;;;;;43.35;21.65;;;9.20;99.90;;;;;;5072054;28;20044;-80
2023/02/17 03:46:51;;;;;;;45.58;22.95;;;9.10;99.90;;;;;;5071753;28;20131;-80
2023/02/17 03:49:18;;;;;;;43.40;21.65;;;9.10;99.90;;;;;;5068544;28;20494;-80
2023/02/17 03:51:45;;;;;;;47.35;23.75;;;9.20;99.90;;;;;;5069097;28;20047;-80
2023/02/17 03:54:12;;;;;;;45.67;21.80;;;9.10;99.90;;;;;;5051877;28;20103;-80
2023/02/17 03:56:38;;;;;;;44.42;21.77;;;9.10;99.90;;;;;;5052018;28;20033;-80
2023/02/17 03:59:06;;;;;;;49.70;22.35;;;9.10;99.90;;;;;;5045375;28;20037;-80
2023/02/17 04:01:32;;;;;;;47.47;22.65;;;9.10;99.90;;;;;;5071960;28;20085;-80
2023/02/17 04:03:59;;;;;;;43.10;22.05;;;9.10;99.90;;;;;;5071822;28;20044;-80
2023/02/17 04:06:26;;;;;;;44.15;21.63;;;9.10;99.90;;;;;;5068346;28;20132;-80
2023/02/17 04:08:52;;;;;;;41.55;20.38;;;9.10;99.90;;;;;;5051539;28;20053;-80
2023/02/17 04:11:21;;;;;;;41.35;20.75;;;9.20;99.90;;;;;;5035750;28;20033;-80
2023/02/17 04:13:48;;;;;;;40.83;20.67;;;9.10;99.90;;;;;;5051946;28;20409;-80
2023/02/17 04:16:15;;;;;;;43.63;21.08;;;9.10;99.90;;;;;;5051488;28;20033;-80
2023/02/17 04:18:42;;;;;;;36.35;19.23;;;9.10;99.90;;;;;;5068314;28;20079;-80
2023/02/17 04:21:08;;;;;;;39.45;21.02;;;9.10;99.90;;;;;;5049365;28;20064;-80
2023/02/17 04:23:36;;;;;;;37.70;20.48;;;9.10;99.90;;;;;;5052371;28;20041;-80
2023/02/17 04:26:07;;;;;;;39.72;20.83;;;9.10;99.90;;;;;;5051751;28;20076;-81
2023/02/17 04:28:38;;;;;;;34.95;19.77;;;9.10;99.90;;;;;;5052493;28;20536;-80
2023/02/17 04:31:04;;;;;;;41.85;20.77;;;9.10;99.90;;;;;;5055811;28;20037;-80
2023/02/17 04:33:31;;;;;;;36.75;20.00;;;9.10;99.90;;;;;;5035779;28;20037;-80
2023/02/17 04:35:58;;;;;;;39.10;19.88;;;9.10;99.90;;;;;;5051712;28;20041;-81
2023/02/17 04:38:27;;;;;;;37.90;18.52;;;9.10;99.90;;;;;;5035607;28;20040;-80
2023/02/17 04:40:56;;;;;;;32.30;18.98;;;9.10;99.90;;;;;;5079558;28;20039;-80
2023/02/17 04:43:24;;;;;;;35.35;18.80;;;9.10;99.90;;;;;;5071110;28;20044;-80
2023/02/17 04:45:51;;;;;;;39.25;20.15;;;9.10;99.90;;;;;;5087908;28;20049;-80
2023/02/17 04:48:18;;;;;;;36.35;19.13;;;9.10;99.90;;;;;;5054781;28;20044;-80
2023/02/17 04:50:45;;;;;;;37.58;19.75;;;9.10;99.90;;;;;;5035236;28;20414;-80
2023/02/17 04:53:14;;;;;;;39.13;19.83;;;9.10;99.90;;;;;;5051203;28;20041;-79
2023/02/17 04:55:41;;;;;;;34.67;17.92;;;9.10;99.90;;;;;;5067932;28;20449;-80
2023/02/17 04:58:09;;;;;;;32.22;18.10;;;9.10;99.90;;;;;;5050969;28;20490;-80
2023/02/17 05:00:36;;;;;;;32.65;18.48;;;9.10;99.90;;;;;;5053791;28;20123;-80
2023/02/17 05:03:02;;;;;;;32.72;19.38;;;9.10;99.90;;;;;;5071177;28;20049;-80
2023/02/17 05:05:29;;;;;;;37.83;19.50;;;9.10;99.90;;;;;;5038698;28;20559;-80
2023/02/17 05:07:56;;;;;;;39.60;19.92;;;9.10;99.90;;;;;;5057544;28;20092;-80
2023/02/17 05:10:23;;;;;;;34.97;19.98;;;9.10;99.90;;;;;;5111219;28;20078;-80
2023/02/17 05:12:51;;;;;;;37.17;20.48;;;9.10;99.90;;;;;;5077872;28;20072;-80
2023/02/17 05:15:18;;;;;;;36.60;19.58;;;9.10;99.90;;;;;;5094377;28;20048;-80
2023/02/17 05:17:45;;;;;;;41.53;20.55;;;9.10;99.90;;;;;;5094344;28;20028;-80
2023/02/17 05:20:12;;;;;;;36.55;18.75;;;9.10;99.90;;;;;;5077724;28;20426;-80
2023/02/17 05:22:39;;;;;;;34.90;19.13;;;9.00;99.90;;;;;;5094501;28;20523;-80
2023/02/17 05:25:06;;;;;;;38.38;17.48;;;9.00;99.90;;;;;;5077435;28;20040;-80
2023/02/17 05:27:33;;;;;;;33.70;17.50;;;9.00;99.90;;;;;;5077910;28;20036;-80
2023/02/17 05:30:00;;;;;;;29.45;15.95;;;9.00;99.90;;;;;;5094511;28;20036;-80
2023/02/17 05:32:27;;;;;;;29.48;16.60;;;8.90;99.90;;;;;;5093310;28;20497;-80
2023/02/17 05:34:53;;;;;;;30.40;15.82;;;8.90;99.90;;;;;;5061523;28;20043;-80
2023/02/17 05:37:20;;;;;;;33.13;16.63;;;8.90;99.90;;;;;;5060669;28;20123;-80
2023/02/17 05:39:47;;;;;;;30.73;15.65;;;8.90;99.90;;;;;;5078024;28;20040;-80
2023/02/17 05:42:13;;;;;;;32.72;14.98;;;8.80;99.90;;;;;;5061091;28;20100;-80
2023/02/17 05:44:40;;;;;;;30.02;14.23;;;8.80;99.90;;;;;;5060963;28;20042;-80
2023/02/17 05:47:07;;;;;;;33.97;15.68;;;8.80;99.90;;;;;;5077296;28;20400;-80
2023/02/17 05:49:34;;;;;;;31.10;13.48;;;8.70;99.90;;;;;;5060746;28;20040;-80
2023/02/17 05:52:01;;;;;;;28.58;13.98;;;8.70;99.90;;;;;;5093981;28;20105;-80
2023/02/17 05:54:28;;;;;;;28.58;13.18;;;8.70;99.90;;;;;;5061422;28;20127;-80
2023/02/17 05:56:54;;;;;;;29.67;14.18;;;8.70;99.90;;;;;;5077353;28;20147;-80
2023/02/17 05:59:21;;;;;;;27.52;13.68;;;8.70;99.90;;;;;;5110232;28;20048;-80
2023/02/17 06:01:48;;;;;;;26.25;13.65;;;8.70;99.90;;;;;;5077603;28;20040;-80
2023/02/17 06:04:15;;;;;;;25.23;12.70;;;8.60;99.90;;;;;;5076593;28;20109;-80
2023/02/17 06:06:41;;;;;;;32.45;12.35;;;8.60;99.90;;;;;;5076711;28;20496;-80
2023/02/17 06:09:08;;;;;;;24.63;11.95;;;8.60;99.90;;;;;;5093629;28;20492;-80
2023/02/17 06:11:35;;;;;;;27.80;12.23;;;8.60;99.90;;;;;;5093337;28;20036;-80
2023/02/17 06:14:01;;;;;;;28.05;12.38;;;8.60;99.90;;;;;;5076515;28;20032;-80
2023/02/17 06:16:28;;;;;;;24.52;11.52;;;8.60;99.90;;;;;;5088891;28;20044;-80
2023/02/17 06:18:55;;;;;;;25.17;11.73;;;8.60;99.90;;;;;;5077899;28;20036;-80
2023/02/17 06:21:22;;;;;;;26.50;11.52;;;8.60;99.90;;;;;;5076658;28;20122;-80
2023/02/17 06:23:48;;;;;;;25.67;12.02;;;8.60;99.90;;;;;;5073469;28;20041;-80
2023/02/17 06:26:17;;;;;;;27.25;11.75;;;8.60;99.90;;;;;;5076556;28;20039;-80
2023/02/17 06:28:44;;;;;;;22.42;11.07;;;8.60;99.90;;;;;;5076845;28;20134;-80
2023/02/17 06:31:10;;;;;;;22.77;11.15;;;8.60;99.90;;;;;;5076675;28;20130;-80
2023/02/17 06:33:37;;;;;;;22.40;10.40;;;8.70;99.90;;;;;;5092991;28;20040;-80
2023/02/17 06:36:04;;;;;;;28.65;12.48;;;8.70;99.90;;;;;;5109719;28;20043;-80
2023/02/17 06:38:31;;;;;;;22.73;11.38;;;8.70;99.90;;;;;;5092581;28;20046;-80
2023/02/17 06:40:58;;;;;;;31.55;13.43;;;8.70;99.90;;;;;;5076923;28;20543;-80
2023/02/17 06:43:24;;;;;;;32.10;13.90;;;8.70;99.90;;;;;;5092543;28;20079;-80
2023/02/17 06:45:51;;;;;;;36.03;15.40;;;8.70;99.90;;;;;;5099770;28;20044;-80
2023/02/17 06:48:18;;;;;;;38.72;15.82;;;8.70;99.90;;;;;;5061244;28;20028;-80
2023/02/17 06:50:44;;;;;;;36.38;15.68;;;8.70;99.90;;;;;;5072606;28;20506;-80
2023/02/17 06:53:11;;;;;;;37.40;16.15;;;8.70;99.90;;;;;;5056620;28;20045;-80
2023/02/17 06:55:38;;;;;;;37.55;15.50;;;8.70;99.90;;;;;;5088854;28;20043;-80
2023/02/17 06:58:06;;;;;;;37.60;16.30;;;8.70;99.90;;;;;;5072605;28;20068;-80
2023/02/17 07:00:32;;;;;;;38.38;16.80;;;8.70;99.90;;;;;;5075747;28;20040;-80
2023/02/17 07:02:59;;;;;;;40.88;16.80;;;8.70;99.90;;;;;;5074538;28;20051;-80
2023/02/17 07:05:26;;;;;;;48.72;17.85;;;8.80;99.90;;;;;;5055828;28;20040;-80
2023/02/17 07:07:55;;;;;;;46.38;17.60;;;8.70;99.90;;;;;;5050310;28;20059;-80
2023/02/17 07:10:22;;;;;;;41.47;17.73;;;8.80;99.90;;;;;;5055926;28;20115;-80
2023/02/17 07:12:49;;;;;;;42.65;16.80;;;8.80;99.90;;;;;;5071520;28;20047;-80
2023/02/17 07:15:16;;;;;;;41.10;17.85;;;8.80;99.90;;;;;;5069966;28;20044;-80
2023/02/17 07:17:43;;;;;;;47.42;18.38;;;8.80;99.90;;;;;;5081198;28;20098;-80
2023/02/17 07:20:10;;;;;;;47.05;18.27;;;8.80;99.90;;;;;;5066534;28;20139;-80
2023/02/17 07:22:37;;;;;;;46.63;17.92;;;8.90;99.90;;;;;;5071278;28;20127;-80
2023/02/17 07:25:05;;;;;;;43.83;18.02;;;8.90;99.90;;;;;;5062323;28;20037;-80
2023/02/17 07:27:34;;;;;;;49.67;17.48;;;8.90;99.90;;;;;;5078340;28;20412;-80
2023/02/17 07:30:01;;;;;;;44.42;17.02;;;8.90;99.90;;;;;;5067600;28;20131;-80
2023/02/17 07:32:28;;;;;;;42.15;18.95;;;8.90;99.90;;;;;;5104833;28;20135;-80
2023/02/17 07:34:55;;;;;;;39.55;16.35;;;9.00;99.90;;;;;;5091666;28;20032;-80
2023/02/17 07:37:21;;;;;;;34.80;15.07;;;8.90;99.90;;;;;;5074667;28;20036;-80
2023/02/17 07:39:48;;;;;;;39.80;16.17;;;9.00;99.90;;;;;;5071627;28;20036;-80
2023/02/17 07:42:15;;;;;;;41.58;15.20;;;9.00;99.90;;;;;;5072047;28;20044;-80
2023/02/17 07:44:41;;;;;;;46.17;15.65;;;9.00;99.90;;;;;;5072699;28;20048;-80
2023/02/17 07:47:08;;;;;;;40.03;15.43;;;9.10;99.90;;;;;;5098691;28;20450;-80
2023/02/17 07:49:35;;;;;;;36.15;15.48;;;9.10;99.90;;;;;;5096700;28;20047;-80
2023/02/17 07:52:02;;;;;;;36.55;16.00;;;9.00;99.90;;;;;;5072860;28;20032;-80
2023/02/17 07:54:29;;;;;;;40.30;16.00;;;9.10;99.90;;;;;;5072021;28;20602;-80
2023/02/17 07:56:55;;;;;;;38.35;15.40;;;9.10;99.90;;;;;;5088154;28;20089;-80
2023/02/17 07:59:22;;;;;;;42.22;16.83;;;9.10;99.90;;;;;;5062931;28;20097;-80
2023/02/17 08:01:49;;;;;;;44.83;16.00;;;9.20;99.90;;;;;;5083558;28;20048;-80
2023/02/17 08:04:16;;;;;;;44.85;15.55;;;9.20;99.90;;;;;;5072129;28;20040;-80
2023/02/17 08:06:43;;;;;;;40.38;15.30;;;9.20;99.90;;;;;;5069958;28;20048;-80
2023/02/17 08:14:41;;;;;;;41.00;14.63;;;9.30;99.90;;;;;;5112134;28;20040;-80
2023/02/17 08:17:08;;;;;;;41.17;14.98;;;9.30;99.90;;;;;;5112558;28;20040;-80
2023/02/17 08:19:35;;;;;;;31.80;14.40;;;9.40;99.90;;;;;;5079071;28;20507;-80
2023/02/17 08:22:02;;;;;;;35.20;14.40;;;9.40;99.90;;;;;;5076747;28;20040;-80
2023/02/17 08:24:29;;;;;;;32.03;13.00;;;9.40;99.90;;;;;;5078779;28;20217;-80
2023/02/17 08:26:56;;;;;;;28.10;12.93;;;9.50;99.90;;;;;;5075346;28;20120;-81
2023/02/17 08:29:22;;;;;;;37.50;12.93;;;9.60;99.90;;;;;;5086113;28;20064;-81
2023/02/17 08:31:51;;;;;;;38.35;14.68;;;9.60;99.90;;;;;;5078250;28;20698;-81
2023/02/17 08:34:18;;;;;;;33.58;14.32;;;9.60;99.90;;;;;;5111592;28;20051;-81
2023/02/17 08:36:45;;;;;;;38.58;13.95;;;9.60;99.90;;;;;;5100334;28;20477;-81
2023/02/17 08:39:15;;;;;;;31.67;12.57;;;9.60;99.90;;;;;;5073860;28;20516;-81
2023/02/17 08:41:43;;;;;;;31.25;12.55;;;9.70;99.90;;;;;;5082422;28;20072;-81
2023/02/17 08:44:18;;;;;;;33.20;13.00;;;9.70;99.90;;;;;;5071127;28;20428;-81
2023/02/17 08:46:46;;;;;;;33.55;12.90;;;9.80;99.90;;;;;;5088175;28;20037;-81
2023/02/17 08:49:16;;;;;;;32.30;12.43;;;9.80;99.90;;;;;;5075835;28;20069;-81
2023/02/17 08:51:43;;;;;;;31.48;12.57;;;9.90;99.90;;;;;;5058426;28;20032;-81
2023/02/17 08:54:10;;;;;;;25.75;10.98;;;9.90;99.90;;;;;;5075473;28;20081;-81
2023/02/17 08:56:38;;;;;;;25.75;11.25;;;9.90;99.90;;;;;;5076138;28;20036;-81
2023/02/17 08:59:07;;;;;;;27.05;11.77;;;9.90;99.90;;;;;;5076751;28;20128;-79
2023/02/17 09:01:34;;;;;;;27.05;11.13;;;10.00;99.90;;;;;;5090245;28;20050;-81
2023/02/17 09:04:03;;;;;;;23.88;10.73;;;10.00;99.90;;;;;;5058957;28;20051;-80
2023/02/17 09:06:39;;;;;;;30.20;11.15;;;10.00;99.90;;;;;;5075238;28;20085;-80
2023/02/17 09:09:08;;;;;;;24.25;10.73;;;10.10;99.90;;;;;;5089725;28;20092;-79
2023/02/17 09:11:36;;;;;;;21.60;10.85;;;10.10;99.90;;;;;;5083432;28;20097;-80
2023/02/17 09:14:04;;;;;;;23.40;10.52;;;10.20;99.90;;;;;;5063051;28;20405;-80
2023/02/17 09:16:31;;;;;;;21.30;9.98;;;10.20;99.90;;;;;;5083147;28;20098;-80
2023/02/17 09:18:57;;;;;;;19.88;8.93;;;10.20;99.90;;;;;;5054984;28;20044;-80
2023/02/17 09:21:24;;;;;;;21.95;10.02;;;10.20;99.90;;;;;;5077675;28;20048;-80
2023/02/17 09:23:52;;;;;;;19.17;8.25;;;10.20;99.90;;;;;;5082890;28;20571;-80
2023/02/17 09:26:19;;;;;;;19.67;8.93;;;10.30;99.90;;;;;;5091601;28;20400;-80
2023/02/17 09:28:47;;;;;;;22.20;9.02;;;10.30;99.90;;;;;;5074160;28;20453;-80
2023/02/17 09:31:20;;;;;;;16.67;8.55;;;10.40;99.90;;;;;;5058159;28;20040;-80
2023/02/17 09:33:48;;;;;;;22.63;8.30;;;10.40;99.90;;;;;;5082161;28;20458;-80
2023/02/17 09:36:22;;;;;;;21.73;8.38;;;10.40;99.90;;;;;;5090647;28;20043;-80
2023/02/17 09:38:49;;;;;;;17.98;8.05;;;10.50;99.90;;;;;;5093944;28;20079;-80
2023/02/17 09:41:33;;;;;;;17.17;7.93;;;10.40;99.90;;;;;;5080262;28;20479;-80
2023/02/17 09:44:00;;;;;;;16.77;7.63;;;10.50;99.90;;;;;;5090635;28;20044;-79
2023/02/17 09:46:31;;;;;;;21.00;7.72;;;10.50;99.90;;;;;;5075884;28;20086;-80
2023/02/17 09:49:02;;;;;;;19.02;8.23;;;10.50;99.90;;;;;;5109995;28;20040;-81
2023/02/17 09:51:36;;;;;;;14.43;7.70;;;10.60;99.90;;;;;;5093205;28;20039;-80
2023/02/17 09:54:16;;;;;;;17.20;7.93;;;10.60;99.90;;;;;;5093509;28;20043;-80
2023/02/17 09:56:47;;;;;;;14.30;7.43;;;10.50;99.90;;;;;;5086127;28;20041;-80
2023/02/17 09:59:34;;;;;;;17.48;7.28;;;10.50;99.90;;;;;;5107724;28;20454;-80
2023/02/17 10:02:10;;;;;;;16.70;7.07;;;10.60;99.90;;;;;;5082551;28;20102;-80
2023/02/17 10:04:41;;;;;;;16.88;7.05;;;10.60;99.90;;;;;;5089264;28;20048;-81
2023/02/17 10:07:16;;;;;;;15.02;6.80;;;10.50;99.90;;;;;;5092857;28;20055;-80
2023/02/17 10:09:49;;;;;;;;;;;10.60;99.90;;;;;;5109687;28;20420;-80
2023/02/17 10:12:32;;;;;;;11.35;7.00;;;10.50;99.90;;;;;;5082556;28;19956;-80
2023/02/17 10:15:08;;;;;;;13.32;5.93;;;10.50;99.90;;;;;;5102182;28;20093;-80
2023/02/17 10:17:54;;;;;;;12.30;6.05;;;10.60;99.90;;;;;;5092237;28;20050;-80
2023/02/17 10:20:43;;;;;;;16.67;6.50;;;10.50;99.90;;;;;;5080360;28;20672;-80
2023/02/17 10:23:22;;;;;;;15.45;6.45;;;10.50;99.90;;;;;;5081011;28;20043;-80
2023/02/17 10:26:12;;;;;;;15.15;6.63;;;10.50;99.90;;;;;;5098615;28;20515;-80
2023/02/17 10:28:54;;;;;;;15.35;6.22;;;10.50;99.90;;;;;;5092198;28;20047;-80
2023/02/17 10:31:43;;;;;;;15.88;6.45;;;10.50;99.90;;;;;;5101551;28;20071;-80
2023/02/17 10:34:33;;;;;;;16.23;6.88;;;10.50;99.90;;;;;;5086134;28;20058;-80
2023/02/17 10:37:21;;;;;;;18.42;6.22;;;10.50;99.90;;;;;;5100991;28;20039;-80
2023/02/17 10:39:54;;;;;;;21.90;6.90;;;10.50;99.90;;;;;;5072510;28;20110;-80
2023/02/17 10:42:24;;;;;;;15.23;6.55;;;10.50;99.90;;;;;;5078699;28;20791;-80
2023/02/17 10:44:56;;;;;;;15.35;6.05;;;10.50;99.90;;;;;;5091867;28;20511;-80
2023/02/17 10:47:23;;;;;;;12.45;6.05;;;10.60;99.90;;;;;;5091900;28;20044;-80
2023/02/17 10:49:52;;;;;;;12.70;5.85;;;10.60;99.90;;;;;;5058973;28;20047;-80
2023/02/17 10:52:22;;;;;;;18.95;7.25;;;10.60;99.90;;;;;;5075345;28;20063;-80
2023/02/17 10:55:16;;;;;;;12.63;5.72;;;10.50;99.90;;;;;;5074317;28;20032;-80
2023/02/17 10:57:44;;;;;;;13.27;5.97;;;10.60;99.90;;;;;;5079503;28;20052;-80
2023/02/17 11:00:16;;;;;;;13.13;5.57;;;10.60;99.90;;;;;;5071942;28;20041;-80
2023/02/17 11:02:45;;;;;;;12.23;5.32;;;10.60;99.90;;;;;;5080736;28;20040;-81
2023/02/17 11:05:27;;;;;;;15.63;6.03;;;10.60;99.90;;;;;;5081439;28;20056;-80
2023/02/17 11:08:20;;;;;;;10.45;5.43;;;10.60;99.90;;;;;;5100473;28;20514;-80
2023/02/17 11:11:13;;;;;;;17.92;5.22;;;10.60;99.90;;;;;;5087339;28;20047;-80
2023/02/17 11:13:54;;;;;;;12.95;5.00;;;10.60;99.90;;;;;;5079311;28;20036;-80
2023/02/17 11:16:25;;;;;;;15.55;5.05;;;10.60;99.90;;;;;;5075089;28;20044;-80
2023/02/17 11:18:54;;;;;;;11.82;4.93;;;10.60;99.90;;;;;;5097444;28;20048;-79
2023/02/17 11:21:21;;;;;;;14.05;5.25;;;10.70;99.90;;;;;;5081053;28;20035;-79
2023/02/17 11:23:55;;;;;;;15.82;4.55;;;10.60;99.90;;;;;;5078495;28;20040;-79
2023/02/17 11:26:24;;;;;;;13.43;4.50;;;10.60;99.90;;;;;;5081215;28;20043;-80
2023/02/17 11:28:51;;;;;;;14.15;4.65;;;10.60;99.90;;;;;;5081167;28;20128;-80
2023/02/17 11:31:30;;;;;;;12.98;4.75;;;10.60;99.90;;;;;;5068563;28;20440;-79
2023/02/17 11:33:57;;;;;;;13.40;4.50;;;10.70;99.90;;;;;;5080738;28;20880;-80
2023/02/17 11:36:31;;;;;;;13.63;4.10;;;10.60;99.90;;;;;;5075379;28;20097;-80
2023/02/17 11:38:59;;;;;;;8.70;3.88;;;10.70;99.90;;;;;;5077780;28;20141;-80
2023/02/17 11:41:26;;;;;;;14.40;3.80;;;10.70;99.90;;;;;;5078997;28;20040;-80
2023/02/17 11:43:57;;;;;;;13.55;4.20;;;10.70;99.90;;;;;;5075524;28;20201;-80
2023/02/17 11:46:23;;;;;;;9.75;3.50;;;10.70;99.90;;;;;;5100178;28;20044;-80
2023/02/17 11:49:15;;;;;;;10.18;3.58;;;10.70;99.90;;;;;;5110963;28;20142;-80
2023/02/17 11:52:03;;;;;;;15.20;3.42;;;10.70;99.90;;;;;;5083435;28;20465;-80
2023/02/17 11:54:48;;;;;;;7.75;3.50;;;10.70;99.90;;;;;;5084380;28;20050;-80
2023/02/17 11:57:21;;;;;;;10.45;3.63;;;10.80;99.90;;;;;;5094765;28;20040;-80
2023/02/17 12:00:21;;;;;;;8.82;2.95;;;10.80;99.90;;;;;;5094985;28;20043;-80
2023/02/17 12:03:13;;;;;;;12.25;3.38;;;10.90;99.90;;;;;;5097484;28;20582;-81
2023/02/17 12:05:58;;;;;;;11.45;3.38;;;11.00;99.90;;;;;;5094934;28;20411;-80
2023/02/17 12:08:49;;;;;;;12.15;3.40;;;11.00;99.90;;;;;;5111129;28;20116;-80
2023/02/17 12:11:24;;;;;;;7.82;2.90;;;11.00;99.90;;;;;;5108492;28;20052;-80
2023/02/17 12:14:02;;;;;;;;;;;11.10;99.90;;;;;;5093459;28;20036;-80
2023/02/17 12:16:47;;;;;;;10.23;2.92;;;11.10;99.90;;;;;;5111266;28;20321;-81
2023/02/17 12:19:35;;;;;;;8.87;2.73;;;11.10;99.90;;;;;;5085742;28;20067;-80
2023/02/17 12:22:23;;;;;;;7.75;2.60;;;11.10;99.90;;;;;;5094262;28;20489;-80
2023/02/17 12:25:16;;;;;;;8.35;3.40;;;11.10;99.90;;;;;;5094075;28;20427;-80
2023/02/17 12:28:00;;;;;;;7.78;2.55;;;11.10;99.90;;;;;;5053523;28;20051;-80
2023/02/17 12:31:02;;;;;;;10.10;2.63;;;11.20;99.90;;;;;;5107577;28;20054;-81
2023/02/17 12:33:31;;;;;;;7.95;2.67;;;11.20;99.90;;;;;;5096006;28;20032;-80
2023/02/17 12:36:05;;;;;;;6.43;1.98;;;11.20;99.90;;;;;;5111527;28;20496;-81
2023/02/17 12:38:40;;;;;;;9.50;2.20;;;11.20;99.90;;;;;;5094196;28;20114;-80
2023/02/17 12:41:17;;;;;;;5.85;2.08;;;11.20;99.90;;;;;;5094283;28;20538;-80
2023/02/17 12:44:00;;;;;;;5.72;1.80;;;11.30;99.90;;;;;;5077420;28;20038;-79
2023/02/17 12:46:51;;;;;;;6.35;2.15;;;11.30;99.90;;;;;;5074747;28;20075;-80
2023/02/17 12:49:20;;;;;;;9.80;2.00;;;11.30;99.90;;;;;;5078425;28;20516;-80
2023/02/17 12:51:52;;;;;;;5.80;1.75;;;11.40;99.90;;;;;;5074652;28;20040;-81
2023/02/17 12:54:26;;;;;;;9.00;1.60;;;11.40;99.90;;;;;;5077863;28;20028;-80
2023/02/17 12:57:12;;;;;;;8.52;2.00;;;11.40;99.90;;;;;;5102401;28;20038;-80
2023/02/17 12:59:45;;;;;;;4.45;1.30;;;11.40;99.90;;;;;;5086206;28;20040;-80
2023/02/17 13:02:14;;;;;;;6.20;1.65;;;11.50;99.90;;;;;;5093127;28;20701;-80
2023/02/17 13:04:44;;;;;;;6.93;1.70;;;11.50;99.90;;;;;;5075168;28;20055;-80